Terminal Aerodrome Forecast
Issued by NWS Sioux Falls, SD

Home | Current Version | Previous Version | Text Only | Print | Product List | Glossary On
Versions: 1 2 3 4 5 6 7 8 9 10 11 12 13 14 15 16
000
FTUS43 KFSD 190520
TAFFSD
TAF
KFSD 190520Z 1906/2006 13005KT 5SM BR BKN007 OVC020
      TEMPO 1906/1909 3SM BR SCT007 OVC012
     FM190900 22007KT 4SM BR OVC015
     FM191100 31011KT P6SM OVC015
     FM191400 34013G19KT P6SM BKN025
     FM191700 34021G31KT P6SM BKN040
     FM200100 33013G20KT P6SM SCT060=

USA.gov is the U.S. government's official web portal to all federal, state and local government web resources and services.